sensor_id;sensor_type;location;lat;lon;timestamp;pressure;altitude;pressure_sealevel;temperature;humidity
48846;BME280;34665;51.886;5.436;2023-04-04T00:01:58;102828.81;;;8.63;66.76
48846;BME280;34665;51.886;5.436;2023-04-04T00:04:25;102832.34;;;8.73;66.32
48846;BME280;34665;51.886;5.436;2023-04-04T00:06:51;102824.31;;;8.64;66.82
48846;BME280;34665;51.886;5.436;2023-04-04T00:09:17;102825.06;;;8.75;66.85
48846;BME280;34665;51.886;5.436;2023-04-04T00:11:43;102822.22;;;8.67;66.73
48846;BME280;34665;51.886;5.436;2023-04-04T00:14:09;102823.31;;;8.55;67.11
48846;BME280;34665;51.886;5.436;2023-04-04T00:16:35;102816.00;;;8.57;67.01
48846;BME280;34665;51.886;5.436;2023-04-04T00:19:00;102823.88;;;8.58;67.16
48846;BME280;34665;51.886;5.436;2023-04-04T00:21:25;102821.47;;;8.13;68.35
48846;BME280;34665;51.886;5.436;2023-04-04T00:23:52;102821.47;;;8.34;68.96
48846;BME280;34665;51.886;5.436;2023-04-04T00:26:18;102829.00;;;8.29;69.63
48846;BME280;34665;51.886;5.436;2023-04-04T00:28:45;102827.31;;;8.28;69.42
48846;BME280;34665;51.886;5.436;2023-04-04T00:31:10;102822.91;;;8.38;69.05
48846;BME280;34665;51.886;5.436;2023-04-04T00:33:36;102818.66;;;8.36;69.54
48846;BME280;34665;51.886;5.436;2023-04-04T00:36:02;102812.94;;;8.40;68.82
48846;BME280;34665;51.886;5.436;2023-04-04T00:38:28;102818.00;;;8.43;68.48
48846;BME280;34665;51.886;5.436;2023-04-04T00:40:54;102810.75;;;8.24;68.22
48846;BME280;34665;51.886;5.436;2023-04-04T00:43:21;102811.06;;;8.10;69.13
48846;BME280;34665;51.886;5.436;2023-04-04T00:45:46;102808.78;;;8.05;69.43
48846;BME280;34665;51.886;5.436;2023-04-04T00:48:12;102799.50;;;8.21;69.41
48846;BME280;34665;51.886;5.436;2023-04-04T00:50:37;102801.78;;;8.25;68.61
48846;BME280;34665;51.886;5.436;2023-04-04T00:53:02;102797.00;;;8.19;69.20
48846;BME280;34665;51.886;5.436;2023-04-04T00:55:27;102797.53;;;8.23;68.86
48846;BME280;34665;51.886;5.436;2023-04-04T00:57:53;102793.22;;;8.00;69.27
48846;BME280;34665;51.886;5.436;2023-04-04T01:00:18;102791.19;;;7.93;69.65
48846;BME280;34665;51.886;5.436;2023-04-04T01:02:44;102790.00;;;7.64;71.00
48846;BME280;34665;51.886;5.436;2023-04-04T01:05:09;102795.78;;;7.69;71.44
48846;BME280;34665;51.886;5.436;2023-04-04T01:07:36;102800.47;;;7.77;71.95
48846;BME280;34665;51.886;5.436;2023-04-04T01:10:02;102796.28;;;7.63;72.50
48846;BME280;34665;51.886;5.436;2023-04-04T01:12:32;102807.84;;;7.52;73.16
48846;BME280;34665;51.886;5.436;2023-04-04T01:14:58;102797.78;;;7.56;73.36
48846;BME280;34665;51.886;5.436;2023-04-04T01:17:23;102799.59;;;7.55;72.83
48846;BME280;34665;51.886;5.436;2023-04-04T01:19:56;102792.84;;;7.51;73.49
48846;BME280;34665;51.886;5.436;2023-04-04T01:22:24;102805.94;;;7.43;74.16
48846;BME280;34665;51.886;5.436;2023-04-04T01:24:51;102803.63;;;7.50;74.69
48846;BME280;34665;51.886;5.436;2023-04-04T01:27:19;102800.09;;;7.49;75.00
48846;BME280;34665;51.886;5.436;2023-04-04T01:29:52;102792.88;;;7.40;74.95
48846;BME280;34665;51.886;5.436;2023-04-04T01:32:18;102798.13;;;7.18;75.38
48846;BME280;34665;51.886;5.436;2023-04-04T01:37:50;102801.59;;;7.42;75.04
48846;BME280;34665;51.886;5.436;2023-04-04T01:40:19;102793.88;;;7.39;75.32
48846;BME280;34665;51.886;5.436;2023-04-04T01:42:48;102791.19;;;7.39;75.13
48846;BME280;34665;51.886;5.436;2023-04-04T01:45:16;102790.44;;;7.37;75.41
48846;BME280;34665;51.886;5.436;2023-04-04T01:47:43;102787.75;;;7.15;76.78
48846;BME280;34665;51.886;5.436;2023-04-04T01:50:13;102792.34;;;7.13;77.30
48846;BME280;34665;51.886;5.436;2023-04-04T01:52:40;102790.16;;;7.18;77.06
48846;BME280;34665;51.886;5.436;2023-04-04T01:55:05;102791.59;;;7.23;77.40
48846;BME280;34665;51.886;5.436;2023-04-04T01:57:32;102797.06;;;7.21;77.08
48846;BME280;34665;51.886;5.436;2023-04-04T01:59:57;102797.34;;;6.95;79.10
48846;BME280;34665;51.886;5.436;2023-04-04T02:02:23;102808.94;;;6.83;80.00
48846;BME280;34665;51.886;5.436;2023-04-04T02:04:48;102803.50;;;6.96;79.24
48846;BME280;34665;51.886;5.436;2023-04-04T02:07:14;102804.81;;;6.90;79.15
48846;BME280;34665;51.886;5.436;2023-04-04T02:09:40;102797.91;;;6.99;78.86
48846;BME280;34665;51.886;5.436;2023-04-04T02:12:06;102796.69;;;7.03;79.40
48846;BME280;34665;51.886;5.436;2023-04-04T02:14:33;102804.34;;;6.96;79.69
48846;BME280;34665;51.886;5.436;2023-04-04T02:16:59;102796.00;;;6.89;79.82
48846;BME280;34665;51.886;5.436;2023-04-04T02:19:25;102809.69;;;6.96;80.00
48846;BME280;34665;51.886;5.436;2023-04-04T02:21:51;102812.81;;;7.01;79.54
48846;BME280;34665;51.886;5.436;2023-04-04T02:24:17;102812.81;;;6.90;79.41
48846;BME280;34665;51.886;5.436;2023-04-04T02:26:42;102819.09;;;6.89;80.31
48846;BME280;34665;51.886;5.436;2023-04-04T02:29:08;102803.38;;;6.86;81.02
48846;BME280;34665;51.886;5.436;2023-04-04T02:31:33;102810.28;;;6.66;82.58
48846;BME280;34665;51.886;5.436;2023-04-04T02:33:59;102802.19;;;6.79;82.04
48846;BME280;34665;51.886;5.436;2023-04-04T02:36:25;102802.19;;;6.67;81.70
48846;BME280;34665;51.886;5.436;2023-04-04T02:38:53;102797.22;;;6.85;82.23
48846;BME280;34665;51.886;5.436;2023-04-04T02:41:21;102805.94;;;6.76;82.87
48846;BME280;34665;51.886;5.436;2023-04-04T02:43:47;102797.13;;;6.76;83.14
48846;BME280;34665;51.886;5.436;2023-04-04T02:46:12;102805.09;;;6.64;83.71
48846;BME280;34665;51.886;5.436;2023-04-04T02:48:37;102802.56;;;6.63;83.85
48846;BME280;34665;51.886;5.436;2023-04-04T02:51:03;102798.91;;;6.41;84.87
48846;BME280;34665;51.886;5.436;2023-04-04T02:53:30;102797.84;;;6.55;85.13
48846;BME280;34665;51.886;5.436;2023-04-04T02:56:02;102786.84;;;6.59;84.50
48846;BME280;34665;51.886;5.436;2023-04-04T02:58:28;102790.47;;;6.36;85.64
48846;BME280;34665;51.886;5.436;2023-04-04T03:00:54;102787.81;;;6.47;85.67
48846;BME280;34665;51.886;5.436;2023-04-04T03:03:24;102785.63;;;6.52;85.64
48846;BME280;34665;51.886;5.436;2023-04-04T03:05:50;102789.22;;;6.28;86.71
48846;BME280;34665;51.886;5.436;2023-04-04T03:08:16;102787.19;;;6.43;86.54
48846;BME280;34665;51.886;5.436;2023-04-04T03:10:43;102786.19;;;6.22;87.08
48846;BME280;34665;51.886;5.436;2023-04-04T03:13:08;102783.56;;;6.33;87.20
48846;BME280;34665;51.886;5.436;2023-04-04T03:15:34;102772.47;;;6.51;85.85
48846;BME280;34665;51.886;5.436;2023-04-04T03:17:59;102778.25;;;6.44;86.27
48846;BME280;34665;51.886;5.436;2023-04-04T03:20:28;102773.66;;;6.35;86.76
48846;BME280;34665;51.886;5.436;2023-04-04T03:22:53;102776.44;;;6.34;87.82
48846;BME280;34665;51.886;5.436;2023-04-04T03:25:19;102770.38;;;6.20;88.62
48846;BME280;34665;51.886;5.436;2023-04-04T03:27:45;102768.59;;;6.32;89.25
48846;BME280;34665;51.886;5.436;2023-04-04T03:30:17;102776.53;;;6.21;89.94
48846;BME280;34665;51.886;5.436;2023-04-04T03:32:43;102772.91;;;6.22;91.53
48846;BME280;34665;51.886;5.436;2023-04-04T03:35:09;102773.88;;;6.09;91.27
48846;BME280;34665;51.886;5.436;2023-04-04T03:37:36;102778.31;;;6.09;91.85
48846;BME280;34665;51.886;5.436;2023-04-04T03:40:01;102777.00;;;6.03;92.12
48846;BME280;34665;51.886;5.436;2023-04-04T03:42:31;102777.31;;;5.98;93.05
48846;BME280;34665;51.886;5.436;2023-04-04T03:44:57;102773.16;;;6.19;92.64
48846;BME280;34665;51.886;5.436;2023-04-04T03:47:28;102767.34;;;6.02;93.54
48846;BME280;34665;51.886;5.436;2023-04-04T03:49:56;102762.22;;;5.99;93.03
48846;BME280;34665;51.886;5.436;2023-04-04T03:52:22;102760.94;;;6.05;93.49
48846;BME280;34665;51.886;5.436;2023-04-04T03:54:48;102768.06;;;6.15;93.18
48846;BME280;34665;51.886;5.436;2023-04-04T03:57:13;102765.91;;;6.09;93.87
48846;BME280;34665;51.886;5.436;2023-04-04T03:59:41;102761.81;;;6.28;92.46
48846;BME280;34665;51.886;5.436;2023-04-04T04:02:06;102763.38;;;6.19;93.31
48846;BME280;34665;51.886;5.436;2023-04-04T04:04:32;102756.41;;;5.94;94.61
48846;BME280;34665;51.886;5.436;2023-04-04T04:06:58;102755.28;;;5.73;95.73
48846;BME280;34665;51.886;5.436;2023-04-04T04:09:23;102752.94;;;5.93;95.87
48846;BME280;34665;51.886;5.436;2023-04-04T04:11:49;102757.56;;;6.02;95.06
48846;BME280;34665;51.886;5.436;2023-04-04T04:14:15;102757.00;;;5.86;96.21
48846;BME280;34665;51.886;5.436;2023-04-04T04:16:41;102762.94;;;5.89;96.53
48846;BME280;34665;51.886;5.436;2023-04-04T04:19:08;102764.78;;;5.65;98.11
48846;BME280;34665;51.886;5.436;2023-04-04T04:21:38;102768.25;;;5.54;100.00
48846;BME280;34665;51.886;5.436;2023-04-04T04:24:04;102764.72;;;5.53;100.00
48846;BME280;34665;51.886;5.436;2023-04-04T04:26:30;102771.53;;;5.57;100.00
48846;BME280;34665;51.886;5.436;2023-04-04T04:28:55;102774.25;;;5.44;100.00
48846;BME280;34665;51.886;5.436;2023-04-04T04:31:28;102781.31;;;5.33;100.00
48846;BME280;34665;51.886;5.436;2023-04-04T04:33:54;102771.53;;;5.33;100.00
48846;BME280;34665;51.886;5.436;2023-04-04T04:36:24;102778.16;;;5.63;100.00
48846;BME280;34665;51.886;5.436;2023-04-04T04:39:18;102778.41;;;5.60;100.00
48846;BME280;34665;51.886;5.436;2023-04-04T04:42:05;102782.16;;;5.69;100.00
48846;BME280;34665;51.886;5.436;2023-04-04T04:44:33;102775.88;;;5.58;99.48
48846;BME280;34665;51.886;5.436;2023-04-04T04:46:58;102771.09;;;5.75;99.21
48846;BME280;34665;51.886;5.436;2023-04-04T04:49:24;102775.09;;;5.81;99.59
48846;BME280;34665;51.886;5.436;2023-04-04T04:51:50;102778.88;;;5.89;98.13
48846;BME280;34665;51.886;5.436;2023-04-04T04:54:17;102772.41;;;5.45;100.00
48846;BME280;34665;51.886;5.436;2023-04-04T04:56:45;102778.91;;;5.65;99.80
48846;BME280;34665;51.886;5.436;2023-04-04T04:59:12;102774.94;;;5.71;98.74
48846;BME280;34665;51.886;5.436;2023-04-04T05:01:42;102777.09;;;5.66;99.18
48846;BME280;34665;51.886;5.436;2023-04-04T05:04:08;102782.31;;;5.43;100.00
48846;BME280;34665;51.886;5.436;2023-04-04T05:06:43;102781.47;;;5.42;100.00
48846;BME280;34665;51.886;5.436;2023-04-04T05:09:10;102782.22;;;5.44;100.00
48846;BME280;34665;51.886;5.436;2023-04-04T05:11:36;102790.53;;;5.51;100.00
48846;BME280;34665;51.886;5.436;2023-04-04T05:14:04;102789.81;;;5.49;100.00
48846;BME280;34665;51.886;5.436;2023-04-04T05:16:34;102797.53;;;5.52;100.00
48846;BME280;34665;51.886;5.436;2023-04-04T05:19:01;102802.22;;;5.73;99.58
48846;BME280;34665;51.886;5.436;2023-04-04T05:21:33;102805.66;;;5.62;100.00
48846;BME280;34665;51.886;5.436;2023-04-04T05:24:02;102803.19;;;5.72;99.91
48846;BME280;34665;51.886;5.436;2023-04-04T05:26:27;102797.88;;;5.72;99.58
48846;BME280;34665;51.886;5.436;2023-04-04T05:28:54;102795.84;;;5.51;100.00
48846;BME280;34665;51.886;5.436;2023-04-04T05:31:22;102789.81;;;5.73;99.71
48846;BME280;34665;51.886;5.436;2023-04-04T05:33:50;102792.78;;;5.69;99.22
48846;BME280;34665;51.886;5.436;2023-04-04T05:36:25;102786.66;;;5.68;99.74
48846;BME280;34665;51.886;5.436;2023-04-04T05:38:58;102785.03;;;5.54;99.65
48846;BME280;34665;51.886;5.436;2023-04-04T05:41:28;102782.81;;;5.72;99.72
48846;BME280;34665;51.886;5.436;2023-04-04T05:43:58;102785.78;;;5.68;99.81
48846;BME280;34665;51.886;5.436;2023-04-04T05:46:24;102784.97;;;5.67;99.88
48846;BME280;34665;51.886;5.436;2023-04-04T05:48:52;102788.13;;;5.84;98.87
48846;BME280;34665;51.886;5.436;2023-04-04T05:51:18;102790.94;;;5.94;98.29
48846;BME280;34665;51.886;5.436;2023-04-04T05:54:02;102787.94;;;5.63;100.00
48846;BME280;34665;51.886;5.436;2023-04-04T05:56:32;102794.31;;;5.84;99.46
48846;BME280;34665;51.886;5.436;2023-04-04T05:58:58;102795.66;;;5.90;98.24
48846;BME280;34665;51.886;5.436;2023-04-04T06:01:27;102804.34;;;5.92;97.58
48846;BME280;34665;51.886;5.436;2023-04-04T06:03:55;102803.88;;;5.98;97.04
48846;BME280;34665;51.886;5.436;2023-04-04T06:06:24;102803.34;;;6.17;96.26
48846;BME280;34665;51.886;5.436;2023-04-04T06:08:50;102806.81;;;6.07;96.74
48846;BME280;34665;51.886;5.436;2023-04-04T06:11:15;102807.53;;;6.09;96.29
48846;BME280;34665;51.886;5.436;2023-04-04T06:13:41;102810.75;;;6.37;94.37
48846;BME280;34665;51.886;5.436;2023-04-04T06:16:12;102809.31;;;6.44;93.45
48846;BME280;34665;51.886;5.436;2023-04-04T06:18:38;102813.19;;;6.40;93.31
48846;BME280;34665;51.886;5.436;2023-04-04T06:21:04;102804.44;;;6.15;94.49
48846;BME280;34665;51.886;5.436;2023-04-04T06:23:29;102805.84;;;6.08;95.76
48846;BME280;34665;51.886;5.436;2023-04-04T06:25:56;102790.63;;;6.10;95.32
48846;BME280;34665;51.886;5.436;2023-04-04T06:28:22;102791.75;;;6.07;94.88
48846;BME280;34665;51.886;5.436;2023-04-04T06:30:48;102798.31;;;6.26;94.51
48846;BME280;34665;51.886;5.436;2023-04-04T06:33:23;102809.78;;;6.38;93.82
48846;BME280;34665;51.886;5.436;2023-04-04T06:35:48;102804.34;;;6.28;94.04
48846;BME280;34665;51.886;5.436;2023-04-04T06:38:15;102803.47;;;6.27;95.08
48846;BME280;34665;51.886;5.436;2023-04-04T06:40:41;102806.66;;;6.44;94.06
48846;BME280;34665;51.886;5.436;2023-04-04T06:43:07;102810.06;;;6.57;94.02
48846;BME280;34665;51.886;5.436;2023-04-04T06:45:37;102804.59;;;6.93;90.97
48846;BME280;34665;51.886;5.436;2023-04-04T06:48:02;102809.78;;;7.06;89.57
48846;BME280;34665;51.886;5.436;2023-04-04T06:50:31;102813.31;;;6.95;89.76
48846;BME280;34665;51.886;5.436;2023-04-04T06:52:57;102812.69;;;6.92;90.85
48846;BME280;34665;51.886;5.436;2023-04-04T06:55:25;102821.41;;;7.05;90.65
48846;BME280;34665;51.886;5.436;2023-04-04T06:57:50;102820.75;;;7.24;90.89
48846;BME280;34665;51.886;5.436;2023-04-04T07:00:16;102815.31;;;7.14;91.15
48846;BME280;34665;51.886;5.436;2023-04-04T07:02:41;102813.75;;;7.12;92.18
48846;BME280;34665;51.886;5.436;2023-04-04T07:05:07;102824.03;;;7.28;92.23
48846;BME280;34665;51.886;5.436;2023-04-04T07:07:32;102829.91;;;7.31;92.94
48846;BME280;34665;51.886;5.436;2023-04-04T07:09:58;102837.56;;;7.69;91.75
48846;BME280;34665;51.886;5.436;2023-04-04T07:12:23;102837.75;;;7.77;90.74
48846;BME280;34665;51.886;5.436;2023-04-04T07:14:49;102839.50;;;7.99;89.89
48846;BME280;34665;51.886;5.436;2023-04-04T07:17:14;102831.94;;;8.04;90.36
48846;BME280;34665;51.886;5.436;2023-04-04T07:19:40;102834.28;;;7.98;90.75
48846;BME280;34665;51.886;5.436;2023-04-04T07:22:06;102837.88;;;8.08;90.54
48846;BME280;34665;51.886;5.436;2023-04-04T07:24:31;102837.00;;;8.08;91.01
48846;BME280;34665;51.886;5.436;2023-04-04T07:26:57;102833.03;;;8.02;91.92
48846;BME280;34665;51.886;5.436;2023-04-04T07:29:22;102835.50;;;7.94;92.19
48846;BME280;34665;51.886;5.436;2023-04-04T07:31:48;102832.34;;;8.21;91.14
48846;BME280;34665;51.886;5.436;2023-04-04T07:34:14;102822.50;;;8.43;89.61
48846;BME280;34665;51.886;5.436;2023-04-04T07:36:39;102826.94;;;8.54;88.93
48846;BME280;34665;51.886;5.436;2023-04-04T07:39:04;102827.25;;;8.60;88.54
48846;BME280;34665;51.886;5.436;2023-04-04T07:41:30;102830.00;;;8.80;87.96
48846;BME280;34665;51.886;5.436;2023-04-04T07:43:56;102832.16;;;8.96;86.63
48846;BME280;34665;51.886;5.436;2023-04-04T07:46:21;102832.84;;;8.98;86.46
48846;BME280;34665;51.886;5.436;2023-04-04T07:48:47;102835.88;;;9.15;86.17
48846;BME280;34665;51.886;5.436;2023-04-04T07:51:13;102829.13;;;9.11;86.65
48846;BME280;34665;51.886;5.436;2023-04-04T07:53:39;102827.22;;;9.42;84.53
48846;BME280;34665;51.886;5.436;2023-04-04T07:56:05;102821.44;;;9.67;81.98
48846;BME280;34665;51.886;5.436;2023-04-04T07:58:31;102822.19;;;9.69;81.47
48846;BME280;34665;51.886;5.436;2023-04-04T08:00:58;102827.75;;;10.05;78.17
48846;BME280;34665;51.886;5.436;2023-04-04T08:03:24;102830.84;;;10.10;77.00
48846;BME280;34665;51.886;5.436;2023-04-04T08:05:50;102821.53;;;10.24;75.81
48846;BME280;34665;51.886;5.436;2023-04-04T08:08:15;102827.53;;;10.46;74.06
48846;BME280;34665;51.886;5.436;2023-04-04T08:10:41;102826.00;;;10.81;71.87
48846;BME280;34665;51.886;5.436;2023-04-04T08:13:07;102834.34;;;10.78;71.15
48846;BME280;34665;51.886;5.436;2023-04-04T08:15:34;102826.16;;;10.80;71.97
48846;BME280;34665;51.886;5.436;2023-04-04T08:17:59;102825.72;;;10.84;71.33
48846;BME280;34665;51.886;5.436;2023-04-04T08:20:25;102826.84;;;11.10;69.20
48846;BME280;34665;51.886;5.436;2023-04-04T08:22:52;102825.63;;;11.04;67.53
48846;BME280;34665;51.886;5.436;2023-04-04T08:25:18;102828.03;;;10.97;65.58
48846;BME280;34665;51.886;5.436;2023-04-04T08:27:44;102838.16;;;11.03;64.43
48846;BME280;34665;51.886;5.436;2023-04-04T08:30:09;102835.41;;;11.13;63.76
48846;BME280;34665;51.886;5.436;2023-04-04T08:32:35;102827.19;;;11.43;61.88
48846;BME280;34665;51.886;5.436;2023-04-04T08:35:01;102831.72;;;11.42;59.68
48846;BME280;34665;51.886;5.436;2023-04-04T08:37:26;102833.16;;;11.37;59.77
48846;BME280;34665;51.886;5.436;2023-04-04T08:39:53;102828.00;;;11.25;58.98
48846;BME280;34665;51.886;5.436;2023-04-04T08:42:19;102828.25;;;11.50;55.20
48846;BME280;34665;51.886;5.436;2023-04-04T08:44:46;102830.94;;;11.50;54.04
48846;BME280;34665;51.886;5.436;2023-04-04T08:47:15;102832.19;;;11.56;52.50
48846;BME280;34665;51.886;5.436;2023-04-04T08:49:42;102834.63;;;11.67;52.38
48846;BME280;34665;51.886;5.436;2023-04-04T08:52:09;102826.19;;;11.62;52.67
48846;BME280;34665;51.886;5.436;2023-04-04T08:54:36;102830.03;;;11.77;52.27
48846;BME280;34665;51.886;5.436;2023-04-04T08:57:02;102834.25;;;11.80;50.69
48846;BME280;34665;51.886;5.436;2023-04-04T08:59:28;102830.47;;;11.91;48.89
48846;BME280;34665;51.886;5.436;2023-04-04T09:01:56;102825.25;;;12.08;47.98
48846;BME280;34665;51.886;5.436;2023-04-04T09:04:25;102835.03;;;12.43;46.77
48846;BME280;34665;51.886;5.436;2023-04-04T09:06:52;102828.53;;;12.81;46.45
48846;BME280;34665;51.886;5.436;2023-04-04T09:09:17;102833.84;;;13.15;46.64
48846;BME280;34665;51.886;5.436;2023-04-04T09:11:43;102835.31;;;13.86;45.84
48846;BME280;34665;51.886;5.436;2023-04-04T09:14:10;102839.41;;;14.55;43.74
48846;BME280;34665;51.886;5.436;2023-04-04T09:16:36;102834.78;;;14.32;43.23
48846;BME280;34665;51.886;5.436;2023-04-04T09:19:01;102831.53;;;15.01;42.87
48846;BME280;34665;51.886;5.436;2023-04-04T09:21:27;102838.22;;;15.60;42.05
48846;BME280;34665;51.886;5.436;2023-04-04T09:24:00;102836.50;;;16.06;41.09
48846;BME280;34665;51.886;5.436;2023-04-04T09:26:25;102829.81;;;16.92;39.40
48846;BME280;34665;51.886;5.436;2023-04-04T09:28:52;102834.38;;;17.72;38.48
48846;BME280;34665;51.886;5.436;2023-04-04T09:31:18;102832.19;;;18.04;37.17
48846;BME280;34665;51.886;5.436;2023-04-04T09:33:43;102827.28;;;18.56;36.99
48846;BME280;34665;51.886;5.436;2023-04-04T09:36:09;102835.66;;;19.03;36.13
48846;BME280;34665;51.886;5.436;2023-04-04T09:38:36;102835.78;;;19.84;34.66
48846;BME280;34665;51.886;5.436;2023-04-04T09:41:02;102847.84;;;20.42;33.10
48846;BME280;34665;51.886;5.436;2023-04-04T09:43:30;102830.66;;;20.55;33.12
48846;BME280;34665;51.886;5.436;2023-04-04T09:45:56;102838.94;;;20.74;34.29
48846;BME280;34665;51.886;5.436;2023-04-04T09:48:26;102844.25;;;20.48;34.19
48846;BME280;34665;51.886;5.436;2023-04-04T09:50:52;102833.38;;;21.40;31.67
48846;BME280;34665;51.886;5.436;2023-04-04T09:53:18;102841.16;;;21.68;30.84
48846;BME280;34665;51.886;5.436;2023-04-04T09:55:50;102844.19;;;21.53;31.22
48846;BME280;34665;51.886;5.436;2023-04-04T09:58:26;102835.16;;;21.27;31.77
48846;BME280;34665;51.886;5.436;2023-04-04T10:00:56;102835.59;;;21.24;31.94
48846;BME280;34665;51.886;5.436;2023-04-04T10:03:23;102842.94;;;21.17;31.49
48846;BME280;34665;51.886;5.436;2023-04-04T10:08:21;102832.94;;;21.75;31.07
48846;BME280;34665;51.886;5.436;2023-04-04T10:10:50;102821.75;;;22.46;30.85
48846;BME280;34665;51.886;5.436;2023-04-04T10:13:23;102823.22;;;22.67;30.45
48846;BME280;34665;51.886;5.436;2023-04-04T10:15:50;102820.38;;;23.35;29.52
48846;BME280;34665;51.886;5.436;2023-04-04T10:18:16;102828.72;;;23.52;29.42
48846;BME280;34665;51.886;5.436;2023-04-04T10:20:42;102822.41;;;23.40;28.04
48846;BME280;34665;51.886;5.436;2023-04-04T10:23:07;102822.38;;;24.06;27.85
48846;BME280;34665;51.886;5.436;2023-04-04T10:25:33;102825.09;;;24.06;28.24
48846;BME280;34665;51.886;5.436;2023-04-04T10:28:01;102814.50;;;24.74;26.75
48846;BME280;34665;51.886;5.436;2023-04-04T10:30:26;102811.09;;;24.96;26.53
48846;BME280;34665;51.886;5.436;2023-04-04T10:32:56;102819.16;;;24.21;27.30
48846;BME280;34665;51.886;5.436;2023-04-04T10:35:25;102812.19;;;24.95;26.99
48846;BME280;34665;51.886;5.436;2023-04-04T10:37:56;102806.31;;;25.20;26.69
48846;BME280;34665;51.886;5.436;2023-04-04T10:40:23;102807.25;;;25.26;26.12
48846;BME280;34665;51.886;5.436;2023-04-04T10:42:51;102796.84;;;25.11;26.02
48846;BME280;34665;51.886;5.436;2023-04-04T10:45:16;102798.88;;;24.87;26.48
48846;BME280;34665;51.886;5.436;2023-04-04T10:47:42;102802.41;;;25.16;26.04
48846;BME280;34665;51.886;5.436;2023-04-04T10:50:08;102795.25;;;25.61;26.02
48846;BME280;34665;51.886;5.436;2023-04-04T10:52:38;102792.94;;;25.92;25.43
48846;BME280;34665;51.886;5.436;2023-04-04T10:55:05;102790.13;;;26.49;25.00
48846;BME280;34665;51.886;5.436;2023-04-04T10:57:32;102791.97;;;26.93;25.22
48846;BME280;34665;51.886;5.436;2023-04-04T11:00:02;102791.19;;;27.25;24.83
48846;BME280;34665;51.886;5.436;2023-04-04T11:02:46;102782.97;;;27.63;24.94
48846;BME280;34665;51.886;5.436;2023-04-04T11:05:19;102785.44;;;27.32;24.59
48846;BME280;34665;51.886;5.436;2023-04-04T11:07:47;102780.25;;;27.73;24.33
48846;BME280;34665;51.886;5.436;2023-04-04T11:10:20;102788.09;;;27.97;23.88
48846;BME280;34665;51.886;5.436;2023-04-04T11:12:50;102783.03;;;28.37;23.43
48846;BME280;34665;51.886;5.436;2023-04-04T11:15:24;102783.88;;;28.38;23.34
48846;BME280;34665;51.886;5.436;2023-04-04T11:17:52;102778.78;;;28.93;22.73
48846;BME280;34665;51.886;5.436;2023-04-04T11:20:28;102772.19;;;28.99;23.01
48846;BME280;34665;51.886;5.436;2023-04-04T11:23:01;102769.41;;;29.25;22.94
48846;BME280;34665;51.886;5.436;2023-04-04T11:25:30;102774.38;;;28.97;22.88
48846;BME280;34665;51.886;5.436;2023-04-04T11:27:56;102770.97;;;29.88;22.40
48846;BME280;34665;51.886;5.436;2023-04-04T11:30:22;102775.34;;;30.66;21.54
48846;BME280;34665;51.886;5.436;2023-04-04T11:32:48;102772.78;;;30.24;21.24
48846;BME280;34665;51.886;5.436;2023-04-04T11:35:15;102760.44;;;30.11;21.49
48846;BME280;34665;51.886;5.436;2023-04-04T11:40:15;102757.44;;;29.97;21.82
48846;BME280;34665;51.886;5.436;2023-04-04T11:42:41;102753.84;;;29.97;21.56
48846;BME280;34665;51.886;5.436;2023-04-04T11:45:07;102753.13;;;30.36;21.54
48846;BME280;34665;51.886;5.436;2023-04-04T11:47:34;102748.56;;;30.16;21.35
48846;BME280;34665;51.886;5.436;2023-04-04T11:50:01;102746.84;;;30.75;21.65
48846;BME280;34665;51.886;5.436;2023-04-04T11:52:31;102747.69;;;31.05;20.94
48846;BME280;34665;51.886;5.436;2023-04-04T11:54:58;102747.25;;;31.28;20.86
48846;BME280;34665;51.886;5.436;2023-04-04T11:57:24;102741.72;;;30.93;20.82
48846;BME280;34665;51.886;5.436;2023-04-04T11:59:50;102745.69;;;31.11;20.49
48846;BME280;34665;51.886;5.436;2023-04-04T12:02:20;102742.38;;;31.44;20.00
48846;BME280;34665;51.886;5.436;2023-04-04T12:04:46;102740.13;;;31.70;20.29
48846;BME280;34665;51.886;5.436;2023-04-04T12:07:12;102738.47;;;31.69;20.50
48846;BME280;34665;51.886;5.436;2023-04-04T12:09:40;102738.31;;;31.36;20.30
48846;BME280;34665;51.886;5.436;2023-04-04T12:12:06;102741.44;;;31.78;20.39
48846;BME280;34665;51.886;5.436;2023-04-04T12:14:32;102738.06;;;32.06;19.52
48846;BME280;34665;51.886;5.436;2023-04-04T12:16:58;102737.09;;;32.15;19.66
48846;BME280;34665;51.886;5.436;2023-04-04T12:19:24;102728.84;;;31.91;19.90
48846;BME280;34665;51.886;5.436;2023-04-04T12:21:50;102728.94;;;32.05;19.74
48846;BME280;34665;51.886;5.436;2023-04-04T12:24:16;102721.66;;;31.90;19.82
48846;BME280;34665;51.886;5.436;2023-04-04T12:26:43;102718.78;;;32.19;19.30
48846;BME280;34665;51.886;5.436;2023-04-04T12:29:08;102711.78;;;31.59;19.22
48846;BME280;34665;51.886;5.436;2023-04-04T12:31:35;102707.88;;;32.09;19.77
48846;BME280;34665;51.886;5.436;2023-04-04T12:34:02;102708.50;;;32.78;18.85
48846;BME280;34665;51.886;5.436;2023-04-04T12:36:29;102704.09;;;32.77;19.17
48846;BME280;34665;51.886;5.436;2023-04-04T12:38:59;102701.63;;;33.22;18.71
48846;BME280;34665;51.886;5.436;2023-04-04T12:41:26;102710.06;;;32.84;19.10
48846;BME280;34665;51.886;5.436;2023-04-04T12:44:01;102690.72;;;32.98;19.18
48846;BME280;34665;51.886;5.436;2023-04-04T12:46:27;102692.19;;;33.23;18.54
48846;BME280;34665;51.886;5.436;2023-04-04T12:48:52;102687.84;;;33.03;18.61
48846;BME280;34665;51.886;5.436;2023-04-04T12:51:18;102688.81;;;33.54;18.10
48846;BME280;34665;51.886;5.436;2023-04-04T12:53:50;102688.41;;;33.61;18.16
48846;BME280;34665;51.886;5.436;2023-04-04T12:56:17;102684.91;;;33.69;17.73
48846;BME280;34665;51.886;5.436;2023-04-04T12:58:46;102671.34;;;33.26;18.02
48846;BME280;34665;51.886;5.436;2023-04-04T13:01:14;102679.16;;;33.52;17.84
48846;BME280;34665;51.886;5.436;2023-04-04T13:03:41;102673.00;;;33.55;17.96